createdAt,value
2016-12-11T00:00:31.621Z,0
2016-12-11T00:01:30.567Z,0
2016-12-11T00:02:30.935Z,0
2016-12-11T00:03:31.053Z,0
2016-12-11T00:04:31.164Z,0
2016-12-11T00:05:31.014Z,0
2016-12-11T00:06:31.124Z,0
2016-12-11T00:07:31.791Z,0
2016-12-11T00:08:30.965Z,0
2016-12-11T00:09:30.557Z,0
2016-12-11T00:10:31.741Z,0
2016-12-11T00:11:31.077Z,0
2016-12-11T00:12:30.750Z,0
2016-12-11T00:13:31.831Z,0
2016-12-11T00:14:31.218Z,0
2016-12-11T00:15:30.848Z,0
2016-12-11T00:16:31.531Z,0
2016-12-11T00:17:30.896Z,0
2016-12-11T00:18:31.703Z,0
2016-12-11T00:19:31.400Z,0
2016-12-11T00:20:31.001Z,0
2016-12-11T00:21:31.015Z,0
2016-12-11T00:22:32.689Z,0
2016-12-11T00:23:31.679Z,0
2016-12-11T00:24:30.814Z,0
2016-12-11T00:25:31.446Z,0
2016-12-11T00:26:31.140Z,0
2016-12-11T00:27:30.709Z,0
2016-12-11T00:28:31.986Z,0
2016-12-11T00:29:31.467Z,0
2016-12-11T00:30:32.130Z,0
2016-12-11T00:31:31.817Z,0
2016-12-11T00:32:30.807Z,0
2016-12-11T00:33:31.523Z,0
2016-12-11T00:34:31.263Z,0
2016-12-11T00:35:30.827Z,0
2016-12-11T00:36:31.176Z,0
2016-12-11T00:37:31.167Z,0
2016-12-11T00:38:32.220Z,0
2016-12-11T00:39:31.463Z,0
2016-12-11T00:40:31.259Z,0
2016-12-11T00:41:31.166Z,0
2016-12-11T00:42:31.503Z,0
2016-12-11T00:43:31.763Z,0
2016-12-11T00:44:31.008Z,0
2016-12-11T00:45:31.652Z,0
2016-12-11T00:46:31.340Z,0
2016-12-11T00:47:31.336Z,0
2016-12-11T00:48:32.206Z,0
2016-12-11T00:49:31.550Z,0
2016-12-11T00:50:31.827Z,0
2016-12-11T00:51:31.394Z,0
2016-12-11T00:52:31.726Z,0
2016-12-11T00:53:31.492Z,0
2016-12-11T00:54:31.840Z,0
2016-12-11T00:55:31.975Z,0
2016-12-11T00:56:31.541Z,0
2016-12-11T00:57:32.432Z,0
2016-12-11T00:58:32.111Z,0
2016-12-11T00:59:31.848Z,0
2016-12-11T01:00:31.431Z,0
2016-12-11T01:01:32.425Z,0
2016-12-11T01:02:31.558Z,0
2016-12-11T01:03:32.329Z,0
2016-12-11T01:04:32.054Z,0
2016-12-11T01:05:32.098Z,0
2016-12-11T01:06:31.972Z,0
2016-12-11T01:07:31.674Z,0
2016-12-11T01:08:31.546Z,0
2016-12-11T01:09:32.174Z,0
2016-12-11T01:10:32.473Z,0
2016-12-11T01:11:31.249Z,0
2016-12-11T01:12:31.666Z,0
2016-12-11T01:13:32.012Z,0
2016-12-11T01:14:32.893Z,0
2016-12-11T01:15:31.958Z,0
2016-12-11T01:16:32.798Z,0
2016-12-11T01:17:32.094Z,0
2016-12-11T01:18:32.094Z,0
2016-12-11T01:19:32.687Z,0
2016-12-11T01:20:32.942Z,0
2016-12-11T01:21:31.821Z,0
2016-12-11T01:22:32.375Z,0
2016-12-11T01:23:32.323Z,0
2016-12-11T01:24:31.650Z,0
2016-12-11T01:25:31.761Z,0
2016-12-11T01:26:32.988Z,0
2016-12-11T01:27:32.427Z,0
2016-12-11T01:28:32.364Z,0
2016-12-11T01:29:32.274Z,0
2016-12-11T01:30:32.292Z,0
2016-12-11T01:31:32.294Z,0
2016-12-11T01:32:32.063Z,0
2016-12-11T01:33:33.016Z,0
2016-12-11T01:34:32.968Z,0
2016-12-11T01:35:32.737Z,0
2016-12-11T01:36:32.817Z,0
2016-12-11T01:37:33.091Z,0
2016-12-11T01:38:34.162Z,0
2016-12-11T01:39:33.333Z,0
2016-12-11T01:40:32.384Z,0
2016-12-11T01:41:31.734Z,0
2016-12-11T01:42:33.537Z,0
2016-12-11T01:43:31.972Z,0
2016-12-11T01:44:32.438Z,0
2016-12-11T01:45:32.460Z,0
2016-12-11T01:46:32.246Z,0
2016-12-11T01:47:32.725Z,0
2016-12-11T01:48:32.265Z,0
2016-12-11T01:49:33.062Z,0
2016-12-11T01:50:33.487Z,0
2016-12-11T01:51:34.078Z,0
2016-12-11T01:52:33.047Z,0
2016-12-11T01:53:33.051Z,0
2016-12-11T01:54:32.791Z,0
2016-12-11T01:55:32.901Z,0
2016-12-11T01:56:32.121Z,0
2016-12-11T01:57:32.916Z,0
2016-12-11T01:58:32.511Z,0
2016-12-11T01:59:32.538Z,0
2016-12-11T02:00:32.711Z,0
2016-12-11T02:01:33.102Z,0
2016-12-11T02:02:32.967Z,0
2016-12-11T02:03:33.120Z,0
2016-12-11T02:04:32.516Z,0
2016-12-11T02:05:33.487Z,0
2016-12-11T02:06:33.130Z,0
2016-12-11T02:07:32.198Z,0
2016-12-11T02:08:33.518Z,0
2016-12-11T02:09:33.246Z,0
2016-12-11T02:10:33.367Z,0
2016-12-11T02:11:33.284Z,0
2016-12-11T02:12:33.684Z,0
2016-12-11T02:13:33.299Z,0
2016-12-11T02:14:33.706Z,0
2016-12-11T02:15:33.712Z,0
2016-12-11T02:16:32.949Z,0
2016-12-11T02:17:33.342Z,0
2016-12-11T02:18:33.291Z,0
2016-12-11T02:19:33.606Z,0
2016-12-11T02:20:33.254Z,0
2016-12-11T02:21:34.560Z,0
2016-12-11T02:22:32.906Z,0
2016-12-11T02:23:32.634Z,0
2016-12-11T02:24:33.725Z,0
2016-12-11T02:25:32.923Z,0
2016-12-11T02:26:33.301Z,0
2016-12-11T02:27:33.902Z,0
2016-12-11T02:28:33.264Z,0
2016-12-11T02:29:33.582Z,0
2016-12-11T02:30:34.077Z,0
2016-12-11T02:31:33.608Z,0
2016-12-11T02:32:33.222Z,0
2016-12-11T02:33:33.335Z,0
2016-12-11T02:34:33.605Z,0
2016-12-11T02:35:33.239Z,0
2016-12-11T02:36:33.074Z,0
2016-12-11T02:37:33.435Z,0
2016-12-11T02:38:34.479Z,0
2016-12-11T02:39:34.049Z,0
2016-12-11T02:40:34.635Z,0
2016-12-11T02:41:33.347Z,0
2016-12-11T02:42:33.306Z,0
2016-12-11T02:43:33.530Z,0
2016-12-11T02:44:34.359Z,0
2016-12-11T02:45:33.476Z,0
2016-12-11T02:46:33.638Z,0
2016-12-11T02:47:33.059Z,0
2016-12-11T02:48:33.422Z,0
2016-12-11T02:49:33.087Z,0
2016-12-11T02:50:33.479Z,0
2016-12-11T02:51:33.582Z,0
2016-12-11T02:52:33.537Z,0
2016-12-11T02:53:33.658Z,0
2016-12-11T02:54:33.175Z,0
2016-12-11T02:55:33.466Z,0
2016-12-11T02:56:34.347Z,0
2016-12-11T02:57:33.872Z,0
2016-12-11T02:58:34.726Z,0
2016-12-11T02:59:34.300Z,0
2016-12-11T03:00:33.831Z,0
2016-12-11T03:01:33.364Z,0
2016-12-11T03:02:33.929Z,0
2016-12-11T03:03:33.744Z,0
2016-12-11T03:04:34.301Z,0
2016-12-11T03:05:33.868Z,0
2016-12-11T03:06:33.871Z,0
2016-12-11T03:07:34.711Z,0
2016-12-11T03:08:34.725Z,0
2016-12-11T03:09:33.618Z,0
2016-12-11T03:10:34.632Z,0
2016-12-11T03:11:33.386Z,0
2016-12-11T03:12:33.819Z,0
2016-12-11T03:13:33.957Z,0
2016-12-11T03:14:33.319Z,0
2016-12-11T03:15:33.334Z,0
2016-12-11T03:16:34.183Z,0
2016-12-11T03:17:34.311Z,0
2016-12-11T03:18:34.617Z,0
2016-12-11T03:19:33.794Z,0
2016-12-11T03:20:34.459Z,0
2016-12-11T03:21:33.538Z,0
2016-12-11T03:22:33.722Z,0
2016-12-11T03:23:34.103Z,0
2016-12-11T03:24:34.282Z,0
2016-12-11T03:25:34.154Z,0
2016-12-11T03:26:34.067Z,0
2016-12-11T03:27:33.615Z,0
2016-12-11T03:28:34.735Z,0
2016-12-11T03:29:34.699Z,0
2016-12-11T03:30:34.237Z,0
2016-12-11T03:31:34.163Z,0
2016-12-11T03:32:34.431Z,0
2016-12-11T03:33:34.410Z,0
2016-12-11T03:34:33.744Z,0
2016-12-11T03:35:34.041Z,0
2016-12-11T03:36:35.133Z,0
2016-12-11T03:37:34.264Z,0
2016-12-11T03:38:34.097Z,0
2016-12-11T03:39:34.090Z,0
2016-12-11T03:40:33.828Z,0
2016-12-11T03:41:34.041Z,0
2016-12-11T03:42:34.899Z,0
2016-12-11T03:43:34.563Z,0
2016-12-11T03:44:34.500Z,0
2016-12-11T03:45:33.740Z,0
2016-12-11T03:46:35.251Z,0
2016-12-11T03:47:34.720Z,0
2016-12-11T03:48:34.424Z,0
2016-12-11T03:49:34.473Z,0
2016-12-11T03:50:34.590Z,0
2016-12-11T03:51:34.315Z,0
2016-12-11T03:52:34.725Z,0
2016-12-11T03:53:35.640Z,0
2016-12-11T03:54:34.671Z,0
2016-12-11T03:55:34.909Z,0
2016-12-11T03:56:34.900Z,0
2016-12-11T03:57:34.923Z,0
2016-12-11T03:58:34.497Z,0
2016-12-11T03:59:34.442Z,0
2016-12-11T04:00:34.721Z,0
2016-12-11T04:01:34.804Z,0
2016-12-11T04:02:34.715Z,0
2016-12-11T04:03:35.515Z,0
2016-12-11T04:04:34.395Z,0
2016-12-11T04:05:35.211Z,0
2016-12-11T04:06:36.465Z,0
2016-12-11T04:07:35.648Z,0
2016-12-11T04:08:34.555Z,0
2016-12-11T04:09:34.509Z,0
2016-12-11T04:10:35.054Z,0
2016-12-11T04:11:34.691Z,0
2016-12-11T04:12:34.779Z,0
2016-12-11T04:13:34.919Z,0
2016-12-11T04:14:35.668Z,0
2016-12-11T04:15:35.005Z,0
2016-12-11T04:16:34.665Z,0
2016-12-11T04:17:35.543Z,0
2016-12-11T04:18:35.475Z,0
2016-12-11T04:19:35.073Z,0
2016-12-11T04:20:35.307Z,0
2016-12-11T04:21:35.829Z,0
2016-12-11T04:22:34.995Z,0
2016-12-11T04:23:34.790Z,0
2016-12-11T04:24:34.802Z,0
2016-12-11T04:25:35.232Z,0
2016-12-11T04:26:34.446Z,0
2016-12-11T04:27:36.030Z,0
2016-12-11T04:28:34.698Z,0
2016-12-11T04:29:36.357Z,0
2016-12-11T04:30:34.566Z,0
2016-12-11T04:31:35.999Z,0
2016-12-11T04:32:36.450Z,0
2016-12-11T04:33:35.010Z,0
2016-12-11T04:34:34.730Z,0
2016-12-11T04:35:35.560Z,0
2016-12-11T04:36:35.611Z,0
2016-12-11T04:37:35.991Z,0
2016-12-11T04:38:35.835Z,0
2016-12-11T04:39:35.373Z,0
2016-12-11T04:40:34.987Z,0
2016-12-11T04:41:36.070Z,0
2016-12-11T04:42:34.975Z,0
2016-12-11T04:43:36.183Z,0
2016-12-11T04:44:35.354Z,0
2016-12-11T04:45:36.249Z,0
2016-12-11T04:46:35.932Z,0
2016-12-11T04:47:36.040Z,0
2016-12-11T04:48:36.115Z,0
2016-12-11T04:49:36.042Z,0
2016-12-11T04:50:35.553Z,0
2016-12-11T04:51:35.881Z,0
2016-12-11T04:52:36.375Z,0
2016-12-11T04:53:35.067Z,0
2016-12-11T04:54:36.298Z,0
2016-12-11T04:55:36.228Z,0
2016-12-11T04:56:36.143Z,0
2016-12-11T04:57:35.495Z,0
2016-12-11T04:58:35.668Z,0
2016-12-11T04:59:35.938Z,0
2016-12-11T05:00:34.986Z,0
2016-12-11T05:01:35.978Z,0
2016-12-11T05:02:36.045Z,0
2016-12-11T05:03:36.643Z,0
2016-12-11T05:04:35.633Z,0
2016-12-11T05:05:35.592Z,0
2016-12-11T05:06:35.754Z,0
2016-12-11T05:07:35.384Z,0
2016-12-11T05:08:35.056Z,0
2016-12-11T05:09:35.906Z,0
2016-12-11T05:10:35.350Z,0
2016-12-11T05:11:36.542Z,0
2016-12-11T05:12:35.894Z,0
2016-12-11T05:13:36.005Z,0
2016-12-11T05:14:35.894Z,0
2016-12-11T05:15:36.192Z,0
2016-12-11T05:16:35.973Z,0
2016-12-11T05:17:35.717Z,0
2016-12-11T05:18:36.021Z,0
2016-12-11T05:19:36.027Z,0
2016-12-11T05:20:36.026Z,0
2016-12-11T05:21:35.851Z,0
2016-12-11T05:22:35.386Z,0
2016-12-11T05:23:35.904Z,0
2016-12-11T05:24:35.772Z,0
2016-12-11T05:25:36.506Z,0
2016-12-11T05:26:36.126Z,0
2016-12-11T05:27:36.368Z,0
2016-12-11T05:28:35.757Z,0
2016-12-11T05:29:35.709Z,0
2016-12-11T05:30:35.322Z,0
2016-12-11T05:31:36.712Z,0
2016-12-11T05:32:35.941Z,0
2016-12-11T05:33:36.638Z,0
2016-12-11T05:34:36.254Z,0
2016-12-11T05:39:36.955Z,0
2016-12-11T05:40:38.554Z,0
2016-12-11T05:41:39.360Z,0
2016-12-11T05:42:39.833Z,0
2016-12-11T05:43:38.751Z,0
2016-12-11T05:44:39.228Z,0
2016-12-11T05:45:38.585Z,0
2016-12-11T05:46:37.742Z,0
2016-12-11T05:47:40.378Z,0
2016-12-11T05:48:38.385Z,0
2016-12-11T05:49:38.469Z,0
2016-12-11T05:50:38.276Z,0
2016-12-11T05:51:38.703Z,0
2016-12-11T05:52:37.448Z,0
2016-12-11T05:53:38.221Z,0
2016-12-11T05:54:39.227Z,0
2016-12-11T05:55:37.689Z,0
2016-12-11T05:56:38.780Z,0
2016-12-11T05:57:38.845Z,0
2016-12-11T05:58:37.822Z,0
2016-12-11T05:59:38.357Z,0
2016-12-11T06:00:37.859Z,0
2016-12-11T06:01:39.536Z,0
2016-12-11T06:02:39.363Z,0
2016-12-11T06:03:38.681Z,0
2016-12-11T06:04:38.282Z,0
2016-12-11T06:05:40.141Z,0
2016-12-11T06:06:39.015Z,0
2016-12-11T06:07:38.622Z,0
2016-12-11T06:08:39.511Z,0
2016-12-11T06:09:39.325Z,0
2016-12-11T06:10:38.353Z,0
2016-12-11T06:11:38.522Z,0
2016-12-11T06:12:38.448Z,0
2016-12-11T06:13:39.391Z,0
2016-12-11T06:14:39.084Z,0
2016-12-11T06:15:40.069Z,0
2016-12-11T06:16:37.267Z,0
2016-12-11T06:17:38.144Z,0
2016-12-11T06:18:38.078Z,0
2016-12-11T06:19:38.466Z,0
2016-12-11T06:20:38.224Z,0
2016-12-11T06:21:39.234Z,0
2016-12-11T06:22:38.179Z,0
2016-12-11T06:23:39.390Z,0
2016-12-11T06:24:39.452Z,0
2016-12-11T06:25:38.121Z,0
2016-12-11T06:26:38.690Z,0
2016-12-11T06:27:39.310Z,0
2016-12-11T06:28:41.932Z,0
2016-12-11T06:29:40.129Z,0
2016-12-11T06:30:39.631Z,0
2016-12-11T06:31:38.060Z,0
2016-12-11T06:32:38.592Z,0
2016-12-11T06:33:38.770Z,0
2016-12-11T06:34:39.051Z,0
2016-12-11T06:35:38.035Z,0
2016-12-11T06:36:37.912Z,0
2016-12-11T06:37:37.976Z,0
2016-12-11T06:38:37.990Z,0
2016-12-11T06:39:39.394Z,0
2016-12-11T06:40:38.814Z,0
2016-12-11T06:41:37.189Z,0
2016-12-11T06:42:37.814Z,0
2016-12-11T06:43:37.303Z,0
2016-12-11T06:44:38.864Z,0
2016-12-11T06:45:38.513Z,0
2016-12-11T06:46:38.527Z,0
2016-12-11T06:47:37.659Z,0
2016-12-11T06:48:38.647Z,0
2016-12-11T06:49:38.918Z,0
2016-12-11T06:50:37.477Z,0
2016-12-11T06:51:39.741Z,0
2016-12-11T06:52:40.216Z,0
2016-12-11T06:53:38.817Z,4
2016-12-11T06:54:39.938Z,4
2016-12-11T06:55:39.514Z,4
2016-12-11T06:56:39.551Z,4
2016-12-11T06:57:38.269Z,4
2016-12-11T06:58:39.127Z,0
2016-12-11T06:59:37.750Z,8
2016-12-11T07:00:38.376Z,4
2016-12-11T07:01:38.420Z,8
2016-12-11T07:02:37.825Z,8
2016-12-11T07:03:38.785Z,12
2016-12-11T07:04:41.433Z,12
2016-12-11T07:05:42.117Z,12
2016-12-11T07:06:47.055Z,12
2016-12-11T07:07:43.552Z,12
2016-12-11T07:08:45.423Z,12
2016-12-11T07:09:44.787Z,16
2016-12-11T07:10:39.730Z,16
2016-12-11T07:11:38.983Z,20
2016-12-11T07:12:38.478Z,20
2016-12-11T07:13:39.536Z,20
2016-12-11T07:14:39.421Z,24
2016-12-11T07:15:39.654Z,24
2016-12-11T07:16:40.449Z,28
2016-12-11T07:17:39.355Z,28
2016-12-11T07:18:39.598Z,28
2016-12-11T07:19:37.684Z,28
2016-12-11T07:20:40.013Z,32
2016-12-11T07:21:39.589Z,40
2016-12-11T07:22:42.271Z,48
2016-12-11T07:23:39.235Z,64
2016-12-11T07:24:41.769Z,72
2016-12-11T07:25:39.846Z,68
2016-12-11T07:26:40.055Z,88
2016-12-11T07:27:41.125Z,88
2016-12-11T07:28:39.919Z,116
2016-12-11T07:29:39.654Z,120
2016-12-11T07:30:40.857Z,120
2016-12-11T07:31:38.878Z,104
2016-12-11T07:32:39.942Z,96
2016-12-11T07:33:38.949Z,104
2016-12-11T07:34:39.828Z,112
2016-12-11T07:35:40.734Z,132
2016-12-11T07:36:40.973Z,148
2016-12-11T07:37:43.393Z,172
2016-12-11T07:38:41.766Z,172
2016-12-11T07:39:44.601Z,200
2016-12-11T07:40:57.342Z,260
2016-12-11T07:41:41.684Z,292
2016-12-11T07:42:42.470Z,300
2016-12-11T07:43:39.932Z,240
2016-12-11T07:44:41.786Z,256
2016-12-11T07:45:40.899Z,228
2016-12-11T07:46:40.132Z,248
2016-12-11T07:47:39.336Z,232
2016-12-11T07:48:41.870Z,264
2016-12-11T07:49:39.843Z,260
2016-12-11T07:50:39.132Z,268
2016-12-11T07:51:39.334Z,368
2016-12-11T07:52:39.772Z,396
2016-12-11T07:53:40.118Z,484
2016-12-11T07:54:39.795Z,444
2016-12-11T07:55:41.336Z,532
2016-12-11T07:56:39.600Z,648
2016-12-11T07:57:41.303Z,704
2016-12-11T07:58:39.710Z,816
2016-12-11T07:59:41.268Z,1016
2016-12-11T08:00:40.336Z,884
2016-12-11T08:01:40.982Z,780
2016-12-11T08:02:41.120Z,640
2016-12-11T08:03:39.903Z,656
2016-12-11T08:04:41.919Z,696
2016-12-11T08:05:39.721Z,768
2016-12-11T08:06:42.395Z,828
2016-12-11T08:07:38.982Z,828
2016-12-11T08:08:40.243Z,900
2016-12-11T08:09:41.024Z,828
2016-12-11T08:10:38.720Z,832
2016-12-11T08:11:39.130Z,916
2016-12-11T08:12:38.123Z,1016
2016-12-11T08:13:38.640Z,1020
2016-12-11T08:14:39.014Z,920
2016-12-11T08:15:39.028Z,856
2016-12-11T08:16:39.276Z,792
2016-12-11T08:17:39.789Z,588
2016-12-11T08:18:39.267Z,608
2016-12-11T08:19:39.471Z,788
2016-12-11T08:20:39.934Z,852
2016-12-11T08:21:39.049Z,956
2016-12-11T08:23:39.726Z,1464
2016-12-11T08:24:38.512Z,1672
2016-12-11T08:25:39.586Z,1672
2016-12-11T08:26:38.504Z,1756
2016-12-11T08:27:38.488Z,1496
2016-12-11T08:28:39.209Z,1552
2016-12-11T08:29:38.516Z,1672
2016-12-11T08:30:39.437Z,1772
2016-12-11T08:31:39.472Z,2072
2016-12-11T08:32:38.808Z,2544
2016-12-11T08:33:38.621Z,2572
2016-12-11T08:34:39.165Z,2604
2016-12-11T08:35:40.373Z,2644
2016-12-11T08:36:39.400Z,3588
2016-12-11T08:37:38.957Z,3892
2016-12-11T08:38:39.507Z,3048
2016-12-11T08:39:39.892Z,3012
2016-12-11T08:40:39.873Z,2612
2016-12-11T08:41:39.250Z,2212
2016-12-11T08:42:39.344Z,2364
2016-12-11T08:43:39.228Z,2404
2016-12-11T08:44:38.922Z,2884
2016-12-11T08:45:39.391Z,3148
2016-12-11T08:46:39.596Z,3228
2016-12-11T08:47:39.825Z,2716
2016-12-11T08:48:39.226Z,2216
2016-12-11T08:49:39.346Z,2052
2016-12-11T08:50:39.474Z,2480
2016-12-11T08:51:38.680Z,2908
2016-12-11T08:52:39.600Z,3000
2016-12-11T08:53:38.773Z,2784
2016-12-11T08:54:38.714Z,2748
2016-12-11T08:55:39.491Z,2972
2016-12-11T08:56:39.402Z,3240
2016-12-11T08:57:39.106Z,3680
2016-12-11T08:58:40.574Z,4064
2016-12-11T08:59:39.673Z,3920
2016-12-11T09:00:38.787Z,3500
2016-12-11T09:01:39.392Z,3332
2016-12-11T09:02:39.371Z,3660
2016-12-11T09:03:39.269Z,4320
2016-12-11T09:04:39.936Z,4200
2016-12-11T09:05:39.215Z,3284
2016-12-11T09:06:39.455Z,3460
2016-12-11T09:07:39.617Z,4400
2016-12-11T09:08:39.629Z,4280
2016-12-11T09:09:39.444Z,4488
2016-12-11T09:10:39.829Z,3188
2016-12-11T09:11:39.517Z,3352
2016-12-11T09:12:39.589Z,3312
2016-12-11T09:13:39.752Z,2856
2016-12-11T09:14:39.049Z,3340
2016-12-11T09:15:39.748Z,3292
2016-12-11T09:16:39.988Z,3488
2016-12-11T09:17:39.214Z,3364
2016-12-11T09:18:39.402Z,3624
2016-12-11T09:19:40.526Z,3604
2016-12-11T09:20:39.442Z,3684
2016-12-11T09:21:39.652Z,3428
2016-12-11T09:22:39.497Z,3504
2016-12-11T09:23:39.090Z,3856
2016-12-11T09:24:41.050Z,4008
2016-12-11T09:25:40.679Z,4192
2016-12-11T09:26:41.016Z,4128
2016-12-11T09:27:40.351Z,4400
2016-12-11T09:28:39.316Z,4548
2016-12-11T09:29:39.974Z,4704
2016-12-11T09:30:40.329Z,5072
2016-12-11T09:31:41.123Z,5436
2016-12-11T09:32:39.461Z,5684
2016-12-11T09:33:40.189Z,5972
2016-12-11T09:34:39.707Z,6116
2016-12-11T09:35:39.860Z,5452
2016-12-11T09:36:39.743Z,5372
2016-12-11T09:37:39.639Z,5284
2016-12-11T09:38:41.070Z,5076
2016-12-11T09:39:40.390Z,4832
2016-12-11T09:40:39.329Z,4396
2016-12-11T09:41:40.314Z,3984
2016-12-11T09:42:41.095Z,4112
2016-12-11T09:43:40.681Z,3864
2016-12-11T09:44:40.813Z,3684
2016-12-11T09:45:40.944Z,3648
2016-12-11T09:46:40.610Z,3692
2016-12-11T09:47:40.412Z,4672
2016-12-11T09:48:40.174Z,5816
2016-12-11T09:49:40.443Z,6280
2016-12-11T09:50:41.037Z,5780
2016-12-11T09:51:40.527Z,4408
2016-12-11T09:52:39.729Z,4736
2016-12-11T09:53:40.667Z,5660
2016-12-11T09:54:40.070Z,7496
2016-12-11T09:55:40.049Z,7836
2016-12-11T09:56:39.726Z,6380
2016-12-11T09:57:40.702Z,6508
2016-12-11T09:58:41.517Z,5512
2016-12-11T09:59:40.352Z,6756
2016-12-11T10:00:41.519Z,6696
2016-12-11T10:01:40.889Z,5268
2016-12-11T10:02:40.298Z,6360
2016-12-11T10:03:40.916Z,7772
2016-12-11T10:04:41.140Z,7036
2016-12-11T10:05:40.850Z,10120
2016-12-11T10:06:40.631Z,8228
2016-12-11T10:07:41.131Z,8076
2016-12-11T10:08:41.793Z,5856
2016-12-11T10:09:41.583Z,6200
2016-12-11T10:10:40.766Z,6604
2016-12-11T10:11:43.137Z,6612
2016-12-11T10:12:42.701Z,5344
2016-12-11T10:13:42.137Z,4460
2016-12-11T10:14:41.820Z,3884
2016-12-11T10:15:41.711Z,3784
2016-12-11T10:16:41.501Z,3796
2016-12-11T10:17:42.879Z,3984
2016-12-11T10:18:41.263Z,4652
2016-12-11T10:19:41.541Z,4720
2016-12-11T10:20:41.246Z,4864
2016-12-11T10:21:40.893Z,5628
2016-12-11T10:22:40.964Z,6672
2016-12-11T10:23:41.364Z,8268
2016-12-11T10:24:40.531Z,8344
2016-12-11T10:25:40.714Z,6988
2016-12-11T10:26:40.744Z,6304
2016-12-11T10:27:40.771Z,6236
2016-12-11T10:28:41.399Z,6144
2016-12-11T10:29:41.334Z,6540
2016-12-11T10:30:41.377Z,6804
2016-12-11T10:31:40.648Z,6592
2016-12-11T10:32:41.367Z,5628
2016-12-11T10:33:41.281Z,5616
2016-12-11T10:34:40.461Z,6184
2016-12-11T10:35:41.158Z,5892
2016-12-11T10:36:41.602Z,6056
2016-12-11T10:37:41.289Z,6568
2016-12-11T10:38:40.775Z,7312
2016-12-11T10:39:40.872Z,7504
2016-12-11T10:40:41.745Z,6960
2016-12-11T10:41:41.030Z,6608
2016-12-11T10:42:41.865Z,6488
2016-12-11T10:43:41.553Z,5832
2016-12-11T10:44:42.000Z,5144
2016-12-11T10:45:40.606Z,4400
2016-12-11T10:46:41.063Z,3896
2016-12-11T10:47:41.614Z,3924
2016-12-11T10:48:41.140Z,4968
2016-12-11T10:49:40.750Z,5804
2016-12-11T10:50:41.108Z,6716
2016-12-11T10:51:40.543Z,7964
2016-12-11T10:52:41.733Z,8164
2016-12-11T10:53:41.176Z,7012
2016-12-11T10:54:41.412Z,6352
2016-12-11T10:55:41.080Z,5972
2016-12-11T10:56:41.283Z,5828
2016-12-11T10:57:41.872Z,4468
2016-12-11T10:58:41.163Z,4152
2016-12-11T10:59:41.730Z,5192
2016-12-11T11:00:42.582Z,6356
2016-12-11T11:01:42.129Z,7704
2016-12-11T11:02:41.128Z,10376
2016-12-11T11:03:41.163Z,11504
2016-12-11T11:04:41.252Z,11836
2016-12-11T11:05:41.165Z,11116
2016-12-11T11:06:41.329Z,12152
2016-12-11T11:07:40.958Z,11456
2016-12-11T11:08:41.566Z,11728
2016-12-11T11:09:41.511Z,10304
2016-12-11T11:10:41.115Z,9012
2016-12-11T11:11:41.539Z,8820
2016-12-11T11:12:42.208Z,10584
2016-12-11T11:13:41.995Z,10640
2016-12-11T11:14:41.440Z,10056
2016-12-11T11:15:41.497Z,11704
2016-12-11T11:16:41.191Z,12528
2016-12-11T11:17:41.176Z,11300
2016-12-11T11:18:42.359Z,9608
2016-12-11T11:19:41.256Z,9220
2016-12-11T11:20:40.779Z,9204
2016-12-11T11:21:40.978Z,7880
2016-12-11T11:22:41.541Z,6924
2016-12-11T11:23:41.838Z,5964
2016-12-11T11:24:42.016Z,6052
2016-12-11T11:25:42.722Z,7820
2016-12-11T11:26:42.123Z,8312
2016-12-11T11:27:42.151Z,8688
2016-12-11T11:28:42.540Z,8628
2016-12-11T11:29:41.746Z,7320
2016-12-11T11:30:42.413Z,8680
2016-12-11T11:31:41.748Z,9876
2016-12-11T11:32:43.003Z,11152
2016-12-11T11:33:41.622Z,11252
2016-12-11T11:34:41.799Z,9192
2016-12-11T11:35:41.878Z,8640
2016-12-11T11:36:42.124Z,7568
2016-12-11T11:37:42.368Z,6704
2016-12-11T11:38:41.522Z,7280
2016-12-11T11:39:42.056Z,7116
2016-12-11T11:40:42.149Z,8076
2016-12-11T11:41:42.182Z,7220
2016-12-11T11:42:42.121Z,7336
2016-12-11T11:43:42.142Z,7064
2016-12-11T11:44:43.158Z,7020
2016-12-11T11:45:41.963Z,6168
2016-12-11T11:46:42.525Z,6936
2016-12-11T11:47:43.075Z,8276
2016-12-11T11:48:42.118Z,7532
2016-12-11T11:49:42.322Z,7136
2016-12-11T11:50:42.474Z,7428
2016-12-11T11:51:42.657Z,8808
2016-12-11T11:52:42.397Z,9380
2016-12-11T11:53:42.261Z,10220
2016-12-11T11:54:42.678Z,10652
2016-12-11T11:55:42.029Z,11196
2016-12-11T11:56:42.606Z,10984
2016-12-11T11:57:42.149Z,10168
2016-12-11T11:58:42.067Z,10232
2016-12-11T11:59:42.660Z,10944
2016-12-11T12:00:42.936Z,10192
2016-12-11T12:01:43.274Z,7784
2016-12-11T12:02:43.076Z,6232
2016-12-11T12:03:42.360Z,5260
2016-12-11T12:04:41.894Z,3756
2016-12-11T12:05:42.739Z,3520
2016-12-11T12:06:43.047Z,3580
2016-12-11T12:07:41.823Z,3480
2016-12-11T12:08:42.986Z,3152
2016-12-11T12:09:43.035Z,3420
2016-12-11T12:10:42.055Z,4128
2016-12-11T12:11:42.838Z,4280
2016-12-11T12:12:42.590Z,3324
2016-12-11T12:13:42.725Z,3080
2016-12-11T12:14:43.020Z,2940
2016-12-11T12:15:42.781Z,2820
2016-12-11T12:16:42.946Z,2580
2016-12-11T12:17:43.008Z,2652
2016-12-11T12:18:42.226Z,3404
2016-12-11T12:19:42.618Z,4152
2016-12-11T12:20:42.349Z,5188
2016-12-11T12:21:42.354Z,5528
2016-12-11T12:22:42.797Z,6544
2016-12-11T12:23:43.084Z,6060
2016-12-11T12:24:43.158Z,5180
2016-12-11T12:25:42.352Z,4812
2016-12-11T12:26:42.364Z,4760
2016-12-11T12:27:42.496Z,5528
2016-12-11T12:28:43.198Z,5892
2016-12-11T12:29:42.855Z,5732
2016-12-11T12:30:42.626Z,6204
2016-12-11T12:31:43.315Z,7032
2016-12-11T12:32:43.300Z,7568
2016-12-11T12:33:42.705Z,7004
2016-12-11T12:34:43.114Z,6640
2016-12-11T12:35:44.032Z,6628
2016-12-11T12:36:43.515Z,5580
2016-12-11T12:37:44.114Z,4628
2016-12-11T12:38:42.833Z,3760
2016-12-11T12:39:43.020Z,3544
2016-12-11T12:40:43.147Z,3472
2016-12-11T12:41:43.722Z,3448
2016-12-11T12:42:42.793Z,3480
2016-12-11T12:43:43.417Z,3156
2016-12-11T12:44:42.718Z,3236
2016-12-11T12:45:43.427Z,3804
2016-12-11T12:46:43.244Z,4328
2016-12-11T12:48:43.380Z,5312
2016-12-11T12:49:43.596Z,5032
2016-12-11T12:50:43.629Z,4904
2016-12-11T12:51:42.626Z,5428
2016-12-11T12:52:43.641Z,5940
2016-12-11T12:53:42.622Z,6276
2016-12-11T12:54:44.569Z,5996
2016-12-11T12:55:43.059Z,5472
2016-12-11T12:56:44.691Z,3884
2016-12-11T12:57:43.213Z,2932
2016-12-11T12:58:42.930Z,3544
2016-12-11T12:59:42.868Z,4460
2016-12-11T13:00:43.651Z,4804
2016-12-11T13:01:43.567Z,5068
2016-12-11T13:02:43.239Z,6028
2016-12-11T13:03:43.211Z,6308
2016-12-11T13:04:44.316Z,6940
2016-12-11T13:05:43.250Z,6792
2016-12-11T13:06:43.820Z,6372
2016-12-11T13:07:44.903Z,5080
2016-12-11T13:08:45.107Z,4808
2016-12-11T13:09:43.337Z,3428
2016-12-11T13:10:43.284Z,3112
2016-12-11T13:11:44.067Z,2200
2016-12-11T13:12:43.639Z,1496
2016-12-11T13:13:44.154Z,1872
2016-12-11T13:14:43.024Z,2216
2016-12-11T13:15:43.453Z,2504
2016-12-11T13:16:43.206Z,2984
2016-12-11T13:17:44.097Z,3660
2016-12-11T13:18:44.190Z,4528
2016-12-11T13:19:44.066Z,4508
2016-12-11T13:20:43.185Z,3936
2016-12-11T13:21:43.810Z,3340
2016-12-11T13:22:44.158Z,3268
2016-12-11T13:23:44.135Z,3292
2016-12-11T13:24:44.258Z,3012
2016-12-11T13:25:44.208Z,2632
2016-12-11T13:26:44.662Z,1512
2016-12-11T13:27:44.255Z,1548
2016-12-11T13:28:44.027Z,2132
2016-12-11T13:29:44.063Z,2668
2016-12-11T13:30:44.085Z,2736
2016-12-11T13:31:44.517Z,2612
2016-12-11T13:32:44.635Z,2484
2016-12-11T13:33:44.168Z,2208
2016-12-11T13:34:44.121Z,2036
2016-12-11T13:35:44.144Z,2152
2016-12-11T13:36:44.184Z,2152
2016-12-11T13:37:43.560Z,2368
2016-12-11T13:38:43.472Z,2956
2016-12-11T13:39:44.146Z,2824
2016-12-11T13:40:44.410Z,2720
2016-12-11T13:41:44.109Z,3040
2016-12-11T13:42:44.031Z,2892
2016-12-11T13:43:43.624Z,2140
2016-12-11T13:44:44.035Z,2084
2016-12-11T13:45:44.546Z,2484
2016-12-11T13:46:44.374Z,2916
2016-12-11T13:47:44.357Z,3128
2016-12-11T13:48:44.390Z,2704
2016-12-11T13:49:45.029Z,3116
2016-12-11T13:50:44.401Z,2852
2016-12-11T13:51:45.610Z,3032
2016-12-11T13:52:44.697Z,3504
2016-12-11T13:53:44.101Z,3032
2016-12-11T13:54:44.290Z,2268
2016-12-11T13:55:44.488Z,2004
2016-12-11T13:56:44.770Z,1796
2016-12-11T13:57:44.858Z,1548
2016-12-11T13:58:44.151Z,1276
2016-12-11T13:59:44.362Z,1076
2016-12-11T14:00:44.692Z,1036
2016-12-11T14:01:44.205Z,972
2016-12-11T14:02:44.905Z,1032
2016-12-11T14:03:44.705Z,1196
2016-12-11T14:04:44.776Z,1372
2016-12-11T14:05:44.317Z,1408
2016-12-11T14:06:45.145Z,1104
2016-12-11T14:07:44.885Z,876
2016-12-11T14:08:44.111Z,788
2016-12-11T14:09:45.071Z,828